LTBY Airport Information

Runway Information
Runway 09 Length 8261 ft width 98 ft
Elevation 2593 ft Threshold 0 ft Heading 93
Runway 27 Length 8261 ft Width 98 ft
Elevation 2580 ft Threshold 0 ft Heading 273
Airport Frequencies
Type TWR Name TWR Frequency 123.75 MHZ
Airport Navaids
Type VOR-DME Name Eskisehir Frequency 108200 KHZ
Type NDB Name Eskisehir Frequency 372 KHZ
Airport Weather Information & NOTAM
ADDS - METARS form results

(1734 UTC 18 March 2019)
Data provider http://aviationweather.gov/metar/data/
 
METAR text: LTBY 181650Z 10008KT 9999 FEW040 14/03 Q1018
Conditions at: LTBY (ANADOLU , TR) observed 1650 UTC 18 March 2019
Temperature: 14.0°C (57°F)
Dewpoint: 3.0°C (37°F) [RH = 47%]
Pressure (altimeter): 30.06 inches Hg (1018.0 mb)
Winds: from the E (100 degrees) at 9 MPH (8 knots; 4.1 m/s)
Visibility: 6 or more miles (10+ km)
Ceiling: at least 12,000 feet AGL
Clouds: few clouds at 4000 feet AGL
Weather: no significant weather observed at this time

Forecast for: LTBY (ANADOLU , TR)
Text: TAF LTBY 181640Z 1818/1903 VRB02KT CAVOK
Forecast period: 1800 UTC 18 March 2019 to 0300 UTC 19 March 2019
Forecast type: FROM: standard forecast or significant change
Winds: variable direction winds at 2 MPH (2 knots; 1.0 m/s)
Visibility: 6 or more miles 10+ km)
Ceiling: unknown
Clouds: missing
Weather: NSW  (no significant weather)